sensor_id;sensor_type;location;lat;lon;timestamp;pressure;altitude;pressure_sealevel;temperature;humidity
41945;BME280;63122;52.424;13.458;2022-11-12T00:00:10;102465.03;;;7.68;78.48
41945;BME280;63122;52.424;13.458;2022-11-12T00:03:01;102457.72;;;7.73;77.77
41945;BME280;63122;52.424;13.458;2022-11-12T00:05:32;102460.91;;;7.63;77.82
41945;BME280;63122;52.424;13.458;2022-11-12T00:08:03;102459.72;;;7.69;77.97
41945;BME280;63122;52.424;13.458;2022-11-12T00:10:33;102458.41;;;7.76;77.31
41945;BME280;63122;52.424;13.458;2022-11-12T00:13:03;102458.09;;;7.67;77.63
41945;BME280;63122;52.424;13.458;2022-11-12T00:15:36;102463.66;;;7.76;77.19
41945;BME280;63122;52.424;13.458;2022-11-12T00:18:06;102461.13;;;7.75;77.25
41945;BME280;63122;52.424;13.458;2022-11-12T00:20:37;102458.59;;;7.73;76.80
41945;BME280;63122;52.424;13.458;2022-11-12T00:23:07;102457.91;;;7.70;77.08
41945;BME280;63122;52.424;13.458;2022-11-12T00:25:37;102456.06;;;7.56;77.48
41945;BME280;63122;52.424;13.458;2022-11-12T00:28:09;102455.84;;;7.44;78.04
41945;BME280;63122;52.424;13.458;2022-11-12T00:30:42;102450.84;;;7.40;78.52
41945;BME280;63122;52.424;13.458;2022-11-12T00:33:12;102458.97;;;7.35;78.92
41945;BME280;63122;52.424;13.458;2022-11-12T00:35:42;102458.03;;;7.36;78.56
41945;BME280;63122;52.424;13.458;2022-11-12T00:38:12;102448.47;;;7.35;78.54
41945;BME280;63122;52.424;13.458;2022-11-12T00:40:43;102452.38;;;7.28;78.89
41945;BME280;63122;52.424;13.458;2022-11-12T00:43:13;102449.00;;;7.26;78.85
41945;BME280;63122;52.424;13.458;2022-11-12T00:45:46;102458.81;;;7.22;79.29
41945;BME280;63122;52.424;13.458;2022-11-12T00:48:16;102461.78;;;7.32;78.77
41945;BME280;63122;52.424;13.458;2022-11-12T00:50:46;102455.69;;;7.31;78.51
41945;BME280;63122;52.424;13.458;2022-11-12T00:53:17;102457.81;;;7.41;77.96
41945;BME280;63122;52.424;13.458;2022-11-12T00:55:47;102458.22;;;7.33;78.28
41945;BME280;63122;52.424;13.458;2022-11-12T00:58:17;102460.19;;;7.29;78.38
41945;BME280;63122;52.424;13.458;2022-11-12T01:00:50;102458.50;;;7.12;79.23
41945;BME280;63122;52.424;13.458;2022-11-12T01:03:20;102457.53;;;6.97;79.88
41945;BME280;63122;52.424;13.458;2022-11-12T01:05:51;102452.81;;;7.04;80.41
41945;BME280;63122;52.424;13.458;2022-11-12T01:08:21;102455.72;;;6.99;80.15
41945;BME280;63122;52.424;13.458;2022-11-12T01:10:52;102454.09;;;6.97;80.15
41945;BME280;63122;52.424;13.458;2022-11-12T01:13:22;102448.44;;;6.88;80.37
41945;BME280;63122;52.424;13.458;2022-11-12T01:15:55;102445.81;;;6.88;80.36
41945;BME280;63122;52.424;13.458;2022-11-12T01:18:25;102456.28;;;6.88;80.29
41945;BME280;63122;52.424;13.458;2022-11-12T01:20:59;102451.53;;;6.95;79.66
41945;BME280;63122;52.424;13.458;2022-11-12T01:23:31;102443.66;;;6.95;79.75
41945;BME280;63122;52.424;13.458;2022-11-12T01:26:03;102447.06;;;6.97;79.28
41945;BME280;63122;52.424;13.458;2022-11-12T01:28:33;102448.44;;;6.88;79.38
41945;BME280;63122;52.424;13.458;2022-11-12T01:31:15;102448.91;;;6.95;78.87
41945;BME280;63122;52.424;13.458;2022-11-12T01:33:51;102443.41;;;7.00;78.61
41945;BME280;63122;52.424;13.458;2022-11-12T01:36:23;102446.97;;;6.99;79.05
41945;BME280;63122;52.424;13.458;2022-11-12T01:38:54;102453.50;;;6.91;78.83
41945;BME280;63122;52.424;13.458;2022-11-12T01:41:30;102461.28;;;6.93;78.69
41945;BME280;63122;52.424;13.458;2022-11-12T01:44:09;102457.13;;;6.89;78.49
41945;BME280;63122;52.424;13.458;2022-11-12T01:46:48;102458.81;;;6.90;78.73
41945;BME280;63122;52.424;13.458;2022-11-12T01:49:23;102466.69;;;6.90;78.95
41945;BME280;63122;52.424;13.458;2022-11-12T01:51:59;102457.53;;;6.97;78.35
41945;BME280;63122;52.424;13.458;2022-11-12T01:54:31;102458.81;;;7.06;78.44
41945;BME280;63122;52.424;13.458;2022-11-12T01:57:02;102465.69;;;7.09;77.80
41945;BME280;63122;52.424;13.458;2022-11-12T01:59:36;102464.41;;;7.00;77.91
41945;BME280;63122;52.424;13.458;2022-11-12T02:02:11;102469.16;;;7.09;77.67
41945;BME280;63122;52.424;13.458;2022-11-12T02:04:42;102464.94;;;7.06;77.60
41945;BME280;63122;52.424;13.458;2022-11-12T02:07:13;102464.75;;;6.94;78.45
41945;BME280;63122;52.424;13.458;2022-11-12T02:09:44;102462.19;;;6.92;78.20
41945;BME280;63122;52.424;13.458;2022-11-12T02:12:14;102468.16;;;6.96;77.77
41945;BME280;63122;52.424;13.458;2022-11-12T02:14:57;102464.16;;;6.88;78.11
41945;BME280;63122;52.424;13.458;2022-11-12T02:17:30;102466.09;;;6.85;78.23
41945;BME280;63122;52.424;13.458;2022-11-12T02:20:00;102467.28;;;6.95;77.99
41945;BME280;63122;52.424;13.458;2022-11-12T02:22:33;102461.53;;;6.88;78.28
41945;BME280;63122;52.424;13.458;2022-11-12T02:25:04;102469.06;;;6.95;78.28
41945;BME280;63122;52.424;13.458;2022-11-12T02:27:35;102472.03;;;6.88;78.05
41945;BME280;63122;52.424;13.458;2022-11-12T02:30:06;102477.88;;;6.94;77.72
41945;BME280;63122;52.424;13.458;2022-11-12T02:32:36;102475.91;;;6.97;77.71
41945;BME280;63122;52.424;13.458;2022-11-12T02:35:07;102477.13;;;6.91;78.00
41945;BME280;63122;52.424;13.458;2022-11-12T02:37:40;102476.66;;;6.83;78.37
41945;BME280;63122;52.424;13.458;2022-11-12T02:40:10;102478.78;;;6.76;78.75
41945;BME280;63122;52.424;13.458;2022-11-12T02:42:40;102500.59;;;6.77;78.23
41945;BME280;63122;52.424;13.458;2022-11-12T02:45:10;102500.13;;;6.86;77.89
41945;BME280;63122;52.424;13.458;2022-11-12T02:47:41;102495.94;;;6.82;77.40
41945;BME280;63122;52.424;13.458;2022-11-12T02:50:11;102503.91;;;6.47;78.86
41945;BME280;63122;52.424;13.458;2022-11-12T02:52:44;102499.63;;;6.62;78.75
41945;BME280;63122;52.424;13.458;2022-11-12T02:55:14;102500.78;;;6.74;77.82
41945;BME280;63122;52.424;13.458;2022-11-12T02:57:44;102508.22;;;6.66;77.91
41945;BME280;63122;52.424;13.458;2022-11-12T03:00:15;102514.16;;;6.52;78.36
41945;BME280;63122;52.424;13.458;2022-11-12T03:02:45;102506.47;;;6.31;79.44
41945;BME280;63122;52.424;13.458;2022-11-12T03:05:26;102516.13;;;6.30;79.57
41945;BME280;63122;52.424;13.458;2022-11-12T03:08:01;102521.88;;;6.37;79.50
41945;BME280;63122;52.424;13.458;2022-11-12T03:10:32;102522.44;;;6.44;78.66
41945;BME280;63122;52.424;13.458;2022-11-12T03:13:03;102517.97;;;6.28;79.40
41945;BME280;63122;52.424;13.458;2022-11-12T03:15:33;102520.88;;;6.40;78.90
41945;BME280;63122;52.424;13.458;2022-11-12T03:18:03;102525.03;;;6.44;78.59
41945;BME280;63122;52.424;13.458;2022-11-12T03:20:34;102524.06;;;6.29;79.08
41945;BME280;63122;52.424;13.458;2022-11-12T03:23:08;102521.13;;;6.17;79.97
41945;BME280;63122;52.424;13.458;2022-11-12T03:25:39;102521.59;;;6.08;80.39
41945;BME280;63122;52.424;13.458;2022-11-12T03:28:11;102524.03;;;6.11;80.33
41945;BME280;63122;52.424;13.458;2022-11-12T03:30:43;102532.03;;;5.90;81.46
41945;BME280;63122;52.424;13.458;2022-11-12T03:33:13;102530.72;;;5.99;81.15
41945;BME280;63122;52.424;13.458;2022-11-12T03:35:44;102529.94;;;5.97;81.28
41945;BME280;63122;52.424;13.458;2022-11-12T03:38:17;102528.00;;;6.02;81.21
41945;BME280;63122;52.424;13.458;2022-11-12T03:40:47;102527.41;;;5.96;81.01
41945;BME280;63122;52.424;13.458;2022-11-12T03:43:17;102525.72;;;5.95;81.43
41945;BME280;63122;52.424;13.458;2022-11-12T03:45:48;102525.56;;;5.98;81.54
41945;BME280;63122;52.424;13.458;2022-11-12T03:48:18;102524.44;;;5.84;82.12
41945;BME280;63122;52.424;13.458;2022-11-12T03:50:48;102526.84;;;5.89;81.82
41945;BME280;63122;52.424;13.458;2022-11-12T03:53:21;102523.31;;;5.90;81.66
41945;BME280;63122;52.424;13.458;2022-11-12T03:55:51;102529.25;;;5.94;81.28
41945;BME280;63122;52.424;13.458;2022-11-12T03:58:21;102521.31;;;5.95;81.07
41945;BME280;63122;52.424;13.458;2022-11-12T04:00:52;102522.75;;;6.02;80.88
41945;BME280;63122;52.424;13.458;2022-11-12T04:04:33;102528.41;;;5.93;81.42
41945;BME280;63122;52.424;13.458;2022-11-12T04:07:16;102526.69;;;5.92;81.53
41945;BME280;63122;52.424;13.458;2022-11-12T04:10:02;102529.31;;;5.92;81.28
41945;BME280;63122;52.424;13.458;2022-11-12T04:12:33;102517.31;;;5.88;81.36
41945;BME280;63122;52.424;13.458;2022-11-12T04:15:16;102523.88;;;5.97;81.13
41945;BME280;63122;52.424;13.458;2022-11-12T04:17:46;102516.72;;;6.00;80.81
41945;BME280;63122;52.424;13.458;2022-11-12T04:20:29;102525.63;;;5.96;81.21
41945;BME280;63122;52.424;13.458;2022-11-12T04:23:28;102520.03;;;6.04;80.63
41945;BME280;63122;52.424;13.458;2022-11-12T04:26:00;102527.53;;;6.12;80.81
41945;BME280;63122;52.424;13.458;2022-11-12T04:28:43;102534.84;;;6.23;80.16
41945;BME280;63122;52.424;13.458;2022-11-12T04:31:33;102532.22;;;6.40;79.48
41945;BME280;63122;52.424;13.458;2022-11-12T04:34:01;102536.06;;;6.33;79.46
41945;BME280;63122;52.424;13.458;2022-11-12T04:36:43;102533.06;;;6.41;79.59
41945;BME280;63122;52.424;13.458;2022-11-12T04:39:14;102533.13;;;6.39;79.30
41945;BME280;63122;52.424;13.458;2022-11-12T04:41:47;102536.41;;;6.27;79.79
41945;BME280;63122;52.424;13.458;2022-11-12T04:44:29;102538.03;;;6.29;80.26
41945;BME280;63122;52.424;13.458;2022-11-12T04:47:12;102538.69;;;6.33;79.58
41945;BME280;63122;52.424;13.458;2022-11-12T04:49:42;102542.63;;;6.24;80.09
41945;BME280;63122;52.424;13.458;2022-11-12T04:52:13;102537.88;;;6.32;79.34
41945;BME280;63122;52.424;13.458;2022-11-12T04:54:44;102541.09;;;6.20;79.64
41945;BME280;63122;52.424;13.458;2022-11-12T04:57:21;102539.31;;;6.21;80.04
41945;BME280;63122;52.424;13.458;2022-11-12T04:59:52;102544.88;;;6.14;80.37
41945;BME280;63122;52.424;13.458;2022-11-12T05:02:22;102536.47;;;6.25;79.23
41945;BME280;63122;52.424;13.458;2022-11-12T05:04:53;102528.91;;;6.19;79.22
41945;BME280;63122;52.424;13.458;2022-11-12T05:07:23;102546.94;;;6.25;78.69
41945;BME280;63122;52.424;13.458;2022-11-12T05:09:53;102547.81;;;6.26;78.99
41945;BME280;63122;52.424;13.458;2022-11-12T05:12:26;102543.81;;;6.18;78.33
41945;BME280;63122;52.424;13.458;2022-11-12T05:14:56;102544.03;;;6.14;78.46
41945;BME280;63122;52.424;13.458;2022-11-12T05:17:26;102549.88;;;6.19;78.17
41945;BME280;63122;52.424;13.458;2022-11-12T05:19:57;102566.47;;;6.19;78.59
41945;BME280;63122;52.424;13.458;2022-11-12T05:22:27;102553.03;;;6.26;78.29
41945;BME280;63122;52.424;13.458;2022-11-12T05:25:12;102563.34;;;6.11;78.98
41945;BME280;63122;52.424;13.458;2022-11-12T05:27:45;102574.47;;;5.97;80.36
41945;BME280;63122;52.424;13.458;2022-11-12T05:30:16;102559.97;;;6.09;79.85
41945;BME280;63122;52.424;13.458;2022-11-12T05:32:46;102564.16;;;5.94;80.54
41945;BME280;63122;52.424;13.458;2022-11-12T05:35:16;102566.06;;;6.10;79.72
41945;BME280;63122;52.424;13.458;2022-11-12T05:37:46;102554.34;;;6.17;78.14
41945;BME280;63122;52.424;13.458;2022-11-12T05:40:16;102563.22;;;6.14;78.44
41945;BME280;63122;52.424;13.458;2022-11-12T05:42:49;102555.22;;;6.17;78.21
41945;BME280;63122;52.424;13.458;2022-11-12T05:45:19;102562.16;;;6.18;78.21
41945;BME280;63122;52.424;13.458;2022-11-12T05:47:50;102557.13;;;6.14;78.58
41945;BME280;63122;52.424;13.458;2022-11-12T05:50:20;102563.88;;;5.81;81.11
41945;BME280;63122;52.424;13.458;2022-11-12T05:52:50;102566.72;;;5.96;80.47
41945;BME280;63122;52.424;13.458;2022-11-12T05:55:20;102556.66;;;6.05;79.29
41945;BME280;63122;52.424;13.458;2022-11-12T05:57:52;102564.97;;;6.14;78.67
41945;BME280;63122;52.424;13.458;2022-11-12T06:00:23;102561.50;;;6.13;78.43
41945;BME280;63122;52.424;13.458;2022-11-12T06:02:56;102567.16;;;6.05;79.38
41945;BME280;63122;52.424;13.458;2022-11-12T06:05:26;102572.13;;;6.10;79.14
41945;BME280;63122;52.424;13.458;2022-11-12T06:07:56;102573.63;;;6.16;78.84
41945;BME280;63122;52.424;13.458;2022-11-12T06:10:27;102567.44;;;6.17;78.44
41945;BME280;63122;52.424;13.458;2022-11-12T06:12:59;102570.22;;;6.14;78.35
41945;BME280;63122;52.424;13.458;2022-11-12T06:15:30;102562.59;;;6.09;78.86
41945;BME280;63122;52.424;13.458;2022-11-12T06:18:05;102564.53;;;6.05;79.15
41945;BME280;63122;52.424;13.458;2022-11-12T06:20:36;102569.53;;;5.91;79.53
41945;BME280;63122;52.424;13.458;2022-11-12T06:23:06;102571.34;;;5.71;81.84
41945;BME280;63122;52.424;13.458;2022-11-12T06:25:36;102564.81;;;5.80;81.84
41945;BME280;63122;52.424;13.458;2022-11-12T06:28:09;102577.28;;;5.75;81.55
41945;BME280;63122;52.424;13.458;2022-11-12T06:30:39;102577.38;;;5.54;83.13
41945;BME280;63122;52.424;13.458;2022-11-12T06:33:09;102576.31;;;5.39;84.02
41945;BME280;63122;52.424;13.458;2022-11-12T06:35:40;102577.81;;;5.26;84.94
41945;BME280;63122;52.424;13.458;2022-11-12T06:38:10;102580.22;;;5.30;84.72
41945;BME280;63122;52.424;13.458;2022-11-12T06:40:40;102580.81;;;5.16;85.37
41945;BME280;63122;52.424;13.458;2022-11-12T06:43:14;102591.56;;;5.10;85.95
41945;BME280;63122;52.424;13.458;2022-11-12T06:45:44;102590.44;;;5.16;85.80
41945;BME280;63122;52.424;13.458;2022-11-12T06:48:14;102594.72;;;5.18;85.93
41945;BME280;63122;52.424;13.458;2022-11-12T06:50:44;102594.00;;;5.15;86.13
41945;BME280;63122;52.424;13.458;2022-11-12T06:53:15;102598.63;;;5.08;86.48
41945;BME280;63122;52.424;13.458;2022-11-12T06:55:45;102591.00;;;5.03;86.78
41945;BME280;63122;52.424;13.458;2022-11-12T06:58:17;102595.88;;;5.11;86.73
41945;BME280;63122;52.424;13.458;2022-11-12T07:00:48;102604.16;;;5.02;87.09
41945;BME280;63122;52.424;13.458;2022-11-12T07:03:18;102608.19;;;5.09;87.26
41945;BME280;63122;52.424;13.458;2022-11-12T07:05:48;102606.34;;;5.11;86.85
41945;BME280;63122;52.424;13.458;2022-11-12T07:08:18;102611.50;;;5.33;85.64
41945;BME280;63122;52.424;13.458;2022-11-12T07:10:48;102604.91;;;5.25;85.59
41945;BME280;63122;52.424;13.458;2022-11-12T07:13:21;102615.81;;;5.35;85.30
41945;BME280;63122;52.424;13.458;2022-11-12T07:15:51;102610.47;;;5.55;84.27
41945;BME280;63122;52.424;13.458;2022-11-12T07:18:25;102618.84;;;5.64;83.69
41945;BME280;63122;52.424;13.458;2022-11-12T07:20:57;102621.03;;;5.73;83.05
41945;BME280;63122;52.424;13.458;2022-11-12T07:23:29;102622.44;;;5.80;82.71
41945;BME280;63122;52.424;13.458;2022-11-12T07:26:01;102630.03;;;5.86;82.34
41945;BME280;63122;52.424;13.458;2022-11-12T07:28:34;102624.41;;;5.94;82.20
41945;BME280;63122;52.424;13.458;2022-11-12T07:31:06;102629.31;;;5.83;82.14
41945;BME280;63122;52.424;13.458;2022-11-12T07:33:37;102628.13;;;5.71;82.94
41945;BME280;63122;52.424;13.458;2022-11-12T07:36:09;102632.72;;;5.85;82.69
41945;BME280;63122;52.424;13.458;2022-11-12T07:38:40;102646.59;;;5.68;82.95
41945;BME280;63122;52.424;13.458;2022-11-12T07:41:13;102638.16;;;5.61;83.80
41945;BME280;63122;52.424;13.458;2022-11-12T07:43:48;102654.44;;;5.68;83.19
41945;BME280;63122;52.424;13.458;2022-11-12T07:46:20;102645.03;;;5.64;83.49
41945;BME280;63122;52.424;13.458;2022-11-12T07:48:52;102638.38;;;5.75;82.88
41945;BME280;63122;52.424;13.458;2022-11-12T07:51:24;102647.50;;;5.67;83.19
41945;BME280;63122;52.424;13.458;2022-11-12T07:53:56;102640.22;;;5.73;83.00
41945;BME280;63122;52.424;13.458;2022-11-12T07:56:27;102649.41;;;5.63;83.03
41945;BME280;63122;52.424;13.458;2022-11-12T07:59:01;102645.66;;;5.88;82.64
41945;BME280;63122;52.424;13.458;2022-11-12T08:01:34;102639.44;;;5.90;82.77
41945;BME280;63122;52.424;13.458;2022-11-12T08:04:07;102643.53;;;6.15;81.87
41945;BME280;63122;52.424;13.458;2022-11-12T08:06:38;102643.81;;;6.09;81.78
41945;BME280;63122;52.424;13.458;2022-11-12T08:09:09;102650.66;;;6.31;81.14
41945;BME280;63122;52.424;13.458;2022-11-12T08:11:40;102644.00;;;6.41;80.14
41945;BME280;63122;52.424;13.458;2022-11-12T08:14:13;102649.19;;;6.43;80.09
41945;BME280;63122;52.424;13.458;2022-11-12T08:16:43;102647.19;;;6.48;80.11
41945;BME280;63122;52.424;13.458;2022-11-12T08:19:19;102644.25;;;6.54;80.27
41945;BME280;63122;52.424;13.458;2022-11-12T08:21:49;102654.75;;;6.72;79.66
41945;BME280;63122;52.424;13.458;2022-11-12T08:24:20;102642.03;;;6.82;81.22
41945;BME280;63122;52.424;13.458;2022-11-12T08:26:53;102648.44;;;6.94;80.20
41945;BME280;63122;52.424;13.458;2022-11-12T08:29:27;102643.41;;;7.06;79.25
41945;BME280;63122;52.424;13.458;2022-11-12T08:31:57;102647.19;;;7.01;79.22
41945;BME280;63122;52.424;13.458;2022-11-12T08:34:27;102649.03;;;7.16;79.31
41945;BME280;63122;52.424;13.458;2022-11-12T08:36:57;102644.63;;;7.33;79.02
41945;BME280;63122;52.424;13.458;2022-11-12T08:39:27;102637.66;;;7.49;77.88
41945;BME280;63122;52.424;13.458;2022-11-12T08:41:57;102634.91;;;7.51;77.49
41945;BME280;63122;52.424;13.458;2022-11-12T08:44:30;102643.16;;;7.61;77.21
41945;BME280;63122;52.424;13.458;2022-11-12T08:47:00;102645.53;;;7.66;78.10
41945;BME280;63122;52.424;13.458;2022-11-12T08:49:31;102635.63;;;7.71;78.33
41945;BME280;63122;52.424;13.458;2022-11-12T08:52:01;102642.84;;;7.83;78.51
41945;BME280;63122;52.424;13.458;2022-11-12T08:54:31;102644.78;;;7.96;78.21
41945;BME280;63122;52.424;13.458;2022-11-12T08:57:01;102641.44;;;8.08;77.39
41945;BME280;63122;52.424;13.458;2022-11-12T08:59:34;102646.34;;;8.30;76.63
41945;BME280;63122;52.424;13.458;2022-11-12T09:02:04;102639.72;;;8.39;76.26
41945;BME280;63122;52.424;13.458;2022-11-12T09:04:35;102643.09;;;8.57;75.35
41945;BME280;63122;52.424;13.458;2022-11-12T09:07:05;102646.56;;;8.58;76.05
41945;BME280;63122;52.424;13.458;2022-11-12T09:09:36;102655.88;;;8.63;76.55
41945;BME280;63122;52.424;13.458;2022-11-12T09:12:06;102649.41;;;8.69;76.43
41945;BME280;63122;52.424;13.458;2022-11-12T09:14:48;102645.66;;;8.88;76.01
41945;BME280;63122;52.424;13.458;2022-11-12T09:17:22;102648.91;;;9.07;75.40
41945;BME280;63122;52.424;13.458;2022-11-12T09:19:53;102639.31;;;9.06;75.11
41945;BME280;63122;52.424;13.458;2022-11-12T09:22:23;102654.66;;;9.14;75.17
41945;BME280;63122;52.424;13.458;2022-11-12T09:24:54;102662.53;;;9.29;74.89
41945;BME280;63122;52.424;13.458;2022-11-12T09:27:25;102653.31;;;9.50;74.45
41945;BME280;63122;52.424;13.458;2022-11-12T09:30:00;102656.97;;;9.62;73.93
41945;BME280;63122;52.424;13.458;2022-11-12T09:32:30;102664.00;;;9.76;76.07
41945;BME280;63122;52.424;13.458;2022-11-12T09:35:01;102652.13;;;9.84;77.00
41945;BME280;63122;52.424;13.458;2022-11-12T09:37:31;102652.28;;;9.95;73.37
41945;BME280;63122;52.424;13.458;2022-11-12T09:40:01;102672.84;;;9.75;74.63
41945;BME280;63122;52.424;13.458;2022-11-12T09:42:33;102664.75;;;9.78;75.64
41945;BME280;63122;52.424;13.458;2022-11-12T09:45:21;102658.44;;;10.08;75.70
41945;BME280;63122;52.424;13.458;2022-11-12T09:47:56;102657.72;;;10.06;74.81
41945;BME280;63122;52.424;13.458;2022-11-12T09:50:30;102659.41;;;10.07;74.84
41945;BME280;63122;52.424;13.458;2022-11-12T09:53:10;102658.41;;;9.96;75.22
41945;BME280;63122;52.424;13.458;2022-11-12T09:55:42;102653.47;;;10.04;75.24
41945;BME280;63122;52.424;13.458;2022-11-12T09:58:15;102658.91;;;10.15;75.95
41945;BME280;63122;52.424;13.458;2022-11-12T10:00:53;102656.66;;;10.36;73.79
41945;BME280;63122;52.424;13.458;2022-11-12T10:03:33;102649.31;;;10.55;74.14
41945;BME280;63122;52.424;13.458;2022-11-12T10:06:11;102648.00;;;10.62;73.60
41945;BME280;63122;52.424;13.458;2022-11-12T10:08:49;102655.94;;;10.75;74.31
41945;BME280;63122;52.424;13.458;2022-11-12T10:11:43;102648.19;;;10.85;72.82
41945;BME280;63122;52.424;13.458;2022-11-12T10:14:45;102641.66;;;11.16;71.92
41945;BME280;63122;52.424;13.458;2022-11-12T10:17:26;102645.91;;;11.06;69.89
41945;BME280;63122;52.424;13.458;2022-11-12T10:20:04;102655.81;;;11.02;72.25
41945;BME280;63122;52.424;13.458;2022-11-12T10:22:47;102644.81;;;11.34;69.56
41945;BME280;63122;52.424;13.458;2022-11-12T10:25:23;102646.63;;;11.08;72.06
41945;BME280;63122;52.424;13.458;2022-11-12T10:27:55;102638.16;;;11.16;71.81
41945;BME280;63122;52.424;13.458;2022-11-12T10:30:25;102646.13;;;11.90;67.67
41945;BME280;63122;52.424;13.458;2022-11-12T10:32:58;102645.72;;;11.46;70.54
41945;BME280;63122;52.424;13.458;2022-11-12T10:35:28;102638.53;;;11.48;71.64
41945;BME280;63122;52.424;13.458;2022-11-12T10:38:01;102628.34;;;11.68;72.59
41945;BME280;63122;52.424;13.458;2022-11-12T10:40:35;102647.84;;;12.51;68.65
41945;BME280;63122;52.424;13.458;2022-11-12T10:43:20;102642.56;;;12.51;68.32
41945;BME280;63122;52.424;13.458;2022-11-12T10:45:50;102616.38;;;12.82;66.49
41945;BME280;63122;52.424;13.458;2022-11-12T10:48:25;102629.19;;;13.23;64.49
41945;BME280;63122;52.424;13.458;2022-11-12T10:51:00;102654.84;;;13.34;64.87
41945;BME280;63122;52.424;13.458;2022-11-12T10:53:32;102637.59;;;13.05;67.19
41945;BME280;63122;52.424;13.458;2022-11-12T10:56:04;102631.81;;;13.68;62.84
41945;BME280;63122;52.424;13.458;2022-11-12T10:59:08;102646.28;;;13.19;65.49
41945;BME280;63122;52.424;13.458;2022-11-12T11:01:38;102640.13;;;13.64;63.09
41945;BME280;63122;52.424;13.458;2022-11-12T11:04:33;102632.03;;;13.65;64.39
41945;BME280;63122;52.424;13.458;2022-11-12T11:07:05;102631.28;;;14.61;61.07
41945;BME280;63122;52.424;13.458;2022-11-12T11:09:36;102636.78;;;14.27;62.54
41945;BME280;63122;52.424;13.458;2022-11-12T11:12:21;102636.47;;;13.88;64.53
41945;BME280;63122;52.424;13.458;2022-11-12T11:15:05;102621.66;;;14.06;62.91
41945;BME280;63122;52.424;13.458;2022-11-12T11:17:36;102632.53;;;14.03;64.63
41945;BME280;63122;52.424;13.458;2022-11-12T11:20:18;102625.56;;;14.23;63.41
41945;BME280;63122;52.424;13.458;2022-11-12T11:22:53;102622.22;;;14.43;62.53
41945;BME280;63122;52.424;13.458;2022-11-12T11:25:26;102628.19;;;14.35;63.46
41945;BME280;63122;52.424;13.458;2022-11-12T11:28:06;102624.16;;;14.83;63.30
41945;BME280;63122;52.424;13.458;2022-11-12T11:30:45;102610.53;;;15.29;58.88
41945;BME280;63122;52.424;13.458;2022-11-12T11:33:24;102623.50;;;15.82;58.93
41945;BME280;63122;52.424;13.458;2022-11-12T11:36:15;102620.16;;;16.20;57.58
41945;BME280;63122;52.424;13.458;2022-11-12T11:38:56;102600.56;;;16.11;56.31
41945;BME280;63122;52.424;13.458;2022-11-12T11:41:39;102605.97;;;15.50;58.86
41945;BME280;63122;52.424;13.458;2022-11-12T11:44:22;102609.50;;;15.80;57.87
41945;BME280;63122;52.424;13.458;2022-11-12T11:47:05;102610.28;;;15.01;59.08
41945;BME280;63122;52.424;13.458;2022-11-12T11:50:05;102599.09;;;14.12;62.94
41945;BME280;63122;52.424;13.458;2022-11-12T11:52:50;102608.41;;;14.91;60.57
41945;BME280;63122;52.424;13.458;2022-11-12T11:55:32;102605.47;;;15.25;60.50
41945;BME280;63122;52.424;13.458;2022-11-12T11:58:09;102612.00;;;14.38;62.05
41945;BME280;63122;52.424;13.458;2022-11-12T12:00:46;102608.38;;;15.83;58.02
41945;BME280;63122;52.424;13.458;2022-11-12T12:03:22;102591.09;;;16.46;56.18
41945;BME280;63122;52.424;13.458;2022-11-12T12:06:14;102598.53;;;16.52;55.71
41945;BME280;63122;52.424;13.458;2022-11-12T12:09:06;102604.56;;;17.02;54.64
41945;BME280;63122;52.424;13.458;2022-11-12T12:11:45;102600.72;;;17.79;51.75
41945;BME280;63122;52.424;13.458;2022-11-12T12:14:30;102593.84;;;18.31;49.63
41945;BME280;63122;52.424;13.458;2022-11-12T12:17:10;102594.88;;;17.93;50.02
41945;BME280;63122;52.424;13.458;2022-11-12T12:19:54;102580.75;;;18.46;49.19
41945;BME280;63122;52.424;13.458;2022-11-12T12:22:36;102597.41;;;18.66;48.30
41945;BME280;63122;52.424;13.458;2022-11-12T12:25:15;102592.97;;;18.48;48.82
41945;BME280;63122;52.424;13.458;2022-11-12T12:27:50;102581.28;;;18.49;49.14
41945;BME280;63122;52.424;13.458;2022-11-12T12:30:23;102577.25;;;17.82;50.32
41945;BME280;63122;52.424;13.458;2022-11-12T12:32:56;102579.44;;;18.50;48.58
41945;BME280;63122;52.424;13.458;2022-11-12T12:35:31;102580.03;;;17.99;50.75
41945;BME280;63122;52.424;13.458;2022-11-12T12:38:10;102581.50;;;17.57;52.88
41945;BME280;63122;52.424;13.458;2022-11-12T12:40:48;102588.28;;;18.24;49.98
41945;BME280;63122;52.424;13.458;2022-11-12T12:43:27;102586.63;;;17.68;52.16
41945;BME280;63122;52.424;13.458;2022-11-12T12:46:03;102574.53;;;17.28;51.86
41945;BME280;63122;52.424;13.458;2022-11-12T12:48:37;102568.06;;;17.85;51.50
41945;BME280;63122;52.424;13.458;2022-11-12T12:51:10;102578.09;;;18.19;51.02
41945;BME280;63122;52.424;13.458;2022-11-12T12:53:40;102574.88;;;18.68;49.71
41945;BME280;63122;52.424;13.458;2022-11-12T12:56:44;102564.75;;;18.89;48.21
41945;BME280;63122;52.424;13.458;2022-11-12T12:59:19;102568.22;;;19.16;48.12
41945;BME280;63122;52.424;13.458;2022-11-12T13:01:56;102555.78;;;18.98;47.80
41945;BME280;63122;52.424;13.458;2022-11-12T13:04:50;102550.91;;;19.53;45.74
41945;BME280;63122;52.424;13.458;2022-11-12T13:07:37;102547.91;;;19.48;46.60
41945;BME280;63122;52.424;13.458;2022-11-12T13:13:31;102544.47;;;19.04;46.73
41945;BME280;63122;52.424;13.458;2022-11-12T13:16:02;102536.38;;;19.55;46.23
41945;BME280;63122;52.424;13.458;2022-11-12T13:21:38;102535.38;;;19.81;45.01
41945;BME280;63122;52.424;13.458;2022-11-12T13:24:09;102538.91;;;20.07;44.04
41945;BME280;63122;52.424;13.458;2022-11-12T13:26:53;102549.25;;;19.77;45.19
41945;BME280;63122;52.424;13.458;2022-11-12T13:29:45;102544.06;;;19.67;45.02